ADDS METAR Data INFO
IDs: Format: Raw Decoded Include TAF

Data at: 0458 UTC 16 Aug 2018

KIKG 160455Z AUTO 13004KT 10SM CLR 28/26 A2998 RMK AO2 T02800260
KIKG 160435Z AUTO 14005KT 7SM CLR 28/26 A2998 RMK AO2 T02810260
KIKG 160415Z AUTO 13006KT 7SM CLR 28/26 A2997 RMK AO2 T02840258
KIKG 160355Z AUTO 13007KT 10SM CLR 29/26 A2997 RMK AO2 T02850256
KIKG 160335Z AUTO 13007KT 7SM CLR 29/26 A2996 RMK AO2 T02860255
KIKG 160315Z AUTO 13008KT 7SM CLR 29/26 A2996 RMK AO2 T02900256
KIKG 160255Z AUTO 13008KT 7SM CLR 29/26 A2995 RMK AO2 T02900258
KIKG 160235Z AUTO 12007G10KT 5SM HZ CLR 29/26 A2994 RMK AO2 T02920261
KIKG 160215Z AUTO 12009KT 7SM CLR 30/26 A2994 RMK AO2 T02950260
KIKG 160155Z AUTO 12009G14KT 5SM HZ CLR 30/26 A2993 RMK AO2 T02970260
KIKG 160135Z AUTO 12008G14KT 7SM CLR 30/26 A2993 RMK AO2 T03000258
KIKG 160115Z AUTO 11011KT 4SM HZ CLR 30/26 A2993 RMK AO2 T03030257
KIKG 160055Z AUTO 11011KT 3SM HZ CLR 31/25 A2992 RMK AO2 T03090254
KIKG 160035Z AUTO 11013KT 4SM HZ CLR 32/25 A2992 RMK AO2 T03170250
KIKG 160015Z AUTO 10010KT 3SM HZ CLR 32/25 A2991 RMK AO2 T03240249
KIKG 152355Z AUTO 11012KT 3SM HZ CLR 33/25 A2991 RMK AO2 T03300247 10373 20330
KIKG 152335Z AUTO 09012KT 3SM HZ CLR 34/25 A2991 RMK AO2 T03360247
KIKG 152315Z AUTO 10013KT 3SM HZ CLR 34/25 A2991 RMK AO2 T03400248
KIKG 152255Z AUTO 09012KT 2 1/2SM HZ CLR 34/25 A2990 RMK AO2 VIS 1 1/2V3 T03420250
KIKG 152235Z AUTO 10014KT 2 1/2SM HZ CLR 35/25 A2990 RMK AO2 VIS 2V4 T03480249
KIKG 152215Z AUTO 10014KT 3SM HZ CLR 35/25 A2990 RMK AO2 T03510250
KIKG 152155Z AUTO 11013G17KT 3SM HZ SCT050 36/25 A2990 RMK AO2 T03570249
KIKG 152135Z AUTO 12013KT 3SM HZ SCT041 SCT050 36/25 A2990 RMK AO2 T03560252
KIKG 152115Z AUTO 11012G18KT 2 1/2SM HZ SCT041 BKN048 BKN050 35/25 A2990 RMK AO2 T03520252
KIKG 152055Z AUTO 11013G16KT 3SM HZ BKN045 BKN055 BKN075 36/25 A2991 RMK AO2 T03550249
KIKG 152035Z AUTO 09010G17KT 3SM HZ SCT049 SCT055 BKN080 35/25 A2991 RMK AO2 T03510251
KIKG 152015Z AUTO 09009G17KT 2 1/2SM HZ SCT065 SCT080 36/25 A2992 RMK AO2 VIS 1 1/2V5 T03550251
KIKG 151955Z AUTO 10010G17KT 1 3/4SM HZ SCT065 BKN070 BKN080 35/25 A2992 RMK AO2 VIS 1V4 T03520247
KIKG 151935Z AUTO 13009KT 7SM SCT060 SCT070 37/22 A2993 RMK AO2 T03680219
KIKG 151915Z AUTO 13009KT 10SM SCT060 BKN070 36/22 A2993 RMK AO2 T03620218
KIKG 151855Z AUTO 13012KT 7SM SCT050 SCT065 36/22 A2994 RMK AO2 T03610217
KIKG 151835Z AUTO 14009KT 10SM SCT050 35/22 A2995 RMK AO2 T03540221
KIKG 151815Z AUTO 13007KT 10SM SCT048 SCT055 36/23 A2996 RMK AO2 T03580225
KIKG 151755Z AUTO 14007KT 10SM BKN046 BKN055 35/23 A2996 RMK AO2 T03470231 10350 20255
KIKG 151735Z AUTO 16007KT 10SM BKN040 BKN048 BKN055 34/24 A2997 RMK AO2 T03400235
KIKG 151715Z AUTO 15008KT 7SM SCT042 34/24 A2997 RMK AO2 T03400238
KIKG 151655Z AUTO 16009KT 7SM SCT037 BKN044 34/24 A2998 RMK AO2 T03360239
KIKG 151635Z AUTO 16008G15KT 7SM BKN035 33/24 A2998 RMK AO2 T03340240
KIKG 151615Z AUTO 14010KT 5SM HZ SCT033 SCT039 33/24 A2998 RMK AO2 T03290241
KIKG 151555Z AUTO 16011KT 10SM SCT029 SCT034 32/24 A2998 RMK AO2 T03200240
KIKG 151535Z AUTO 15010G14KT 7SM BKN027 33/25 A2998 RMK AO2 T03260248
KIKG 151515Z AUTO 16008KT 7SM BKN025 BKN032 32/25 A2999 RMK AO2 T03190250
KIKG 151455Z AUTO 16007KT 10SM BKN023 31/26 A2999 RMK AO2 T03060255
KIKG 151435Z AUTO 15009KT 7SM BKN021 BKN026 30/26 A2998 RMK AO2 T03030259
KIKG 151415Z AUTO 16008KT 3SM HZ SCT017 30/26 A2998 RMK AO2 T02980263
KIKG 151355Z AUTO 14008KT 1 3/4SM BR SCT013 29/27 A2997 RMK AO2 T02900265
KIKG 151335Z AUTO 14005KT 1 3/4SM BR VV007 28/27 A2998 RMK AO2 T02810265
KIKG 151315Z AUTO 13006KT 1SM BR VV007 27/27 A2997 RMK AO2 T02710265
KIKG 151255Z AUTO 13004KT 1SM BR VV007 26/26 A2996 RMK AO2 T02640264
KIKG 151235Z AUTO 12004KT 1SM BR VV007 26/26 A2996 RMK AO2 T02590259
KIKG 151215Z AUTO 12004KT 1 1/4SM BR VV007 26/26 A2995 RMK AO2 T02560256
KIKG 151155Z AUTO 12005KT 1 3/4SM BR VV007 26/26 A2995 RMK AO2 T02550255 10265 20245
KIKG 151135Z AUTO 12004KT 2 1/2SM BR CLR 25/25 A2995 RMK AO2 T02500250
KIKG 151115Z AUTO 11003KT 4SM BR CLR 25/25 A2995 RMK AO2 T02500250
KIKG 151055Z AUTO 11003KT 4SM BR CLR 25/25 A2994 RMK AO2 T02470247
KIKG 151035Z AUTO 11003KT 4SM BR CLR 25/25 A2994 RMK AO2 T02450245
KIKG 151015Z AUTO 00000KT 7SM CLR 25/25 A2994 RMK AO2 T02450245
KIKG 150955Z AUTO 00000KT 7SM CLR 25/25 A2994 RMK AO2 T02470247
KIKG 150935Z AUTO 00000KT 7SM SCT023 25/25 A2995 RMK AO2 T02460246
KIKG 150915Z AUTO 00000KT 7SM SCT023 25/25 A2994 RMK AO2 T02470247
KIKG 150855Z AUTO 12003KT 7SM SCT023 25/25 A2995 RMK AO2 T02500250
KIKG 150835Z AUTO 11003KT 7SM SCT023 25/25 A2995 RMK AO2 T02470247
KIKG 150815Z AUTO 00000KT 7SM SCT023 25/25 A2995 RMK AO2 T02500250
KIKG 150755Z AUTO 00000KT 7SM CLR 25/25 A2996 RMK AO2 T02480248
KIKG 150735Z AUTO 00000KT 7SM CLR 25/25 A2996 RMK AO2 T02510251
KIKG 150715Z AUTO 00000KT 7SM CLR 26/25 A2996 RMK AO2 T02560253
KIKG 150655Z AUTO 00000KT 7SM CLR 26/25 A2996 RMK AO2 T02590254
KIKG 150635Z AUTO 00000KT 7SM CLR 26/26 A2996 RMK AO2 T02620255
KIKG 150615Z AUTO 14004KT 5SM BR CLR 27/26 A2995 RMK AO2 T02650255
KIKG 150555Z AUTO 14004KT 1 1/2SM BR VV007 27/26 A2996 RMK AO2 T02650255 10330 20265 403650245
KIKG 150535Z AUTO 13004KT 1 1/4SM BR VV007 27/26 A2996 RMK AO2 VIS 1/2V2 1/2 T02650255
KIKG 150515Z AUTO 13004KT 3/4SM BR VV005 27/26 A2996 RMK AO2 T02660255
KIKG 150455Z AUTO 12004KT 3/4SM BR VV005 27/26 A2996 RMK AO2 T02670255
KIKG 150435Z AUTO 13004KT 3SM BR CLR 27/25 A2995 RMK AO2 T02700253
KIKG 150415Z AUTO 13004KT 1 1/4SM BR VV007 27/25 A2994 RMK AO2 T02720253
KIKG 150355Z AUTO 13004KT 1/4SM FG VV002 28/25 A2994 RMK AO2 T02750252
KIKG 150335Z AUTO 12005KT 2SM HZ CLR 28/25 A2994 RMK AO2 T02760251
KIKG 150315Z AUTO 13005KT 10SM CLR 28/25 A2993 RMK AO2 T02790250
KIKG 150255Z AUTO 12007KT 7SM CLR 28/25 A2992 RMK AO2 T02810250
KIKG 150235Z AUTO 12006KT 10SM CLR 28/25 A2992 RMK AO2 T02830248
KIKG 150215Z AUTO 12007KT 10SM CLR 29/25 A2992 RMK AO2 T02860245
KIKG 150155Z AUTO 11008KT 10SM CLR 29/24 A2991 RMK AO2 T02900242
KIKG 150135Z AUTO 11008KT 10SM CLR 30/24 A2991 RMK AO2 T02950238
KIKG 150115Z AUTO 10007KT 10SM CLR 30/23 A2990 RMK AO2 T03020234
KIKG 150055Z AUTO 11010G16KT 10SM CLR 31/23 A2989 RMK AO2 T03070232
KIKG 150035Z AUTO 11010KT 10SM CLR 32/23 A2989 RMK AO2 T03150230
KIKG 150015Z AUTO 11011KT 10SM CLR 32/23 A2988 RMK AO2 T03210230
KIKG 142355Z AUTO 11010G15KT 10SM CLR 33/24 A2989 RMK AO2 T03300236 10365 20330
KIKG 142335Z AUTO 10012G19KT 10SM CLR 33/24 A2989 RMK AO2 T03300240
KIKG 142315Z AUTO 11010G17KT 10SM CLR 34/24 A2989 RMK AO2 T03370238
KIKG 142255Z AUTO 11014G18KT 10SM CLR 34/24 A2988 RMK AO2 T03410235
KIKG 142235Z AUTO 10012G19KT 3SM HZ CLR 34/24 A2988 RMK AO2 T03440235
KIKG 142215Z AUTO 09015G20KT 10SM CLR 35/23 A2988 RMK AO2 T03510230
KIKG 142155Z AUTO 10012KT 10SM CLR 35/23 A2988 RMK AO2 T03530230
KIKG 142135Z AUTO 10013G18KT 10SM SCT050 SCT065 35/23 A2988 RMK AO2 T03530233
KIKG 142115Z AUTO 11012G16KT 4SM HZ SCT045 BKN050 BKN065 36/24 A2989 RMK AO2 T03550236
KIKG 142055Z AUTO 11012G17KT 7SM SCT046 SCT050 BKN065 36/24 A2990 RMK AO2 T03550237
KIKG 142035Z AUTO 09011G16KT 7SM SCT046 SCT060 BKN075 36/24 A2991 RMK AO2 T03560240
KIKG 142015Z AUTO 10011G17KT 7SM SCT065 BKN075 35/24 A2991 RMK AO2 T03450237
KIKG 141955Z AUTO 09010G15KT 7SM SCT050 BKN075 35/24 A2991 RMK AO2 T03510240
KIKG 141935Z AUTO 12011KT 7SM BKN050 BKN070 36/23 A2992 RMK AO2 T03600228
KIKG 141915Z AUTO 12007KT 10SM SCT050 36/22 A2993 RMK AO2 T03560217
KIKG 141855Z AUTO 12008G14KT 3/4SM HZ OVC050 36/22 A2993 RMK AO2 VIS 1/4V5 T03590219
KIKG 141835Z AUTO 14007KT 3SM HZ BKN050 35/22 A2994 RMK AO2 T03500221
KIKG 141815Z AUTO 12010KT 3/4SM HZ BKN048 OVC055 35/22 A2994 RMK AO2 VIS 1/4V5 T03520221
KIKG 141755Z AUTO 14008KT 1/2SM HZ OVC048 35/22 A2995 RMK AO2 T03470223 10347 20250
KIKG 141735Z AUTO 17008G14KT 3/4SM HZ BKN045 OVC050 34/23 A2996 RMK AO2 T03410225
KIKG 141715Z AUTO 15008KT 2SM HZ SCT042 SCT048 34/23 A2996 RMK AO2 T03410228